sensor_id;sensor_type;location;lat;lon;timestamp;P1;durP1;ratioP1;P2;durP2;ratioP2
73678;SDS011;61978;52.742;16.962;2022-10-19T00:01:05;22.55;;;14.45;;
73678;SDS011;61978;52.742;16.962;2022-10-19T00:03:30;22.98;;;14.03;;
73678;SDS011;61978;52.742;16.962;2022-10-19T00:05:58;32.13;;;15.32;;
73678;SDS011;61978;52.742;16.962;2022-10-19T00:08:26;23.10;;;13.48;;
73678;SDS011;61978;52.742;16.962;2022-10-19T00:10:54;28.70;;;15.08;;
73678;SDS011;61978;52.742;16.962;2022-10-19T00:13:21;22.37;;;14.68;;
73678;SDS011;61978;52.742;16.962;2022-10-19T00:15:48;30.50;;;13.93;;
73678;SDS011;61978;52.742;16.962;2022-10-19T00:18:15;25.75;;;13.00;;
73678;SDS011;61978;52.742;16.962;2022-10-19T00:20:42;21.75;;;12.85;;
73678;SDS011;61978;52.742;16.962;2022-10-19T00:23:09;23.42;;;12.53;;
73678;SDS011;61978;52.742;16.962;2022-10-19T00:25:36;25.40;;;12.78;;
73678;SDS011;61978;52.742;16.962;2022-10-19T00:28:03;20.30;;;12.37;;
73678;SDS011;61978;52.742;16.962;2022-10-19T00:30:30;19.52;;;11.00;;
73678;SDS011;61978;52.742;16.962;2022-10-19T00:32:57;21.75;;;12.18;;
73678;SDS011;61978;52.742;16.962;2022-10-19T00:35:25;21.42;;;11.28;;
73678;SDS011;61978;52.742;16.962;2022-10-19T00:37:53;18.07;;;9.33;;
73678;SDS011;61978;52.742;16.962;2022-10-19T00:40:20;20.23;;;10.98;;
73678;SDS011;61978;52.742;16.962;2022-10-19T00:42:52;21.65;;;9.98;;
73678;SDS011;61978;52.742;16.962;2022-10-19T00:45:22;22.02;;;10.98;;
73678;SDS011;61978;52.742;16.962;2022-10-19T00:47:51;23.18;;;10.38;;
73678;SDS011;61978;52.742;16.962;2022-10-19T00:50:19;20.60;;;10.00;;
73678;SDS011;61978;52.742;16.962;2022-10-19T00:52:46;16.67;;;9.65;;
73678;SDS011;61978;52.742;16.962;2022-10-19T00:55:15;22.70;;;9.35;;
73678;SDS011;61978;52.742;16.962;2022-10-19T00:57:45;24.32;;;10.05;;
73678;SDS011;61978;52.742;16.962;2022-10-19T01:00:13;16.40;;;8.70;;
73678;SDS011;61978;52.742;16.962;2022-10-19T01:02:39;17.85;;;9.65;;
73678;SDS011;61978;52.742;16.962;2022-10-19T01:05:07;17.12;;;8.45;;
73678;SDS011;61978;52.742;16.962;2022-10-19T01:07:38;24.57;;;9.03;;
73678;SDS011;61978;52.742;16.962;2022-10-19T01:10:08;23.73;;;9.38;;
73678;SDS011;61978;52.742;16.962;2022-10-19T01:15:36;16.67;;;7.78;;
73678;SDS011;61978;52.742;16.962;2022-10-19T01:18:21;16.10;;;8.00;;
73678;SDS011;61978;52.742;16.962;2022-10-19T01:21:02;20.00;;;8.78;;
73678;SDS011;61978;52.742;16.962;2022-10-19T01:32:07;24.32;;;7.75;;
73678;SDS011;61978;52.742;16.962;2022-10-19T01:45:37;15.98;;;6.47;;
73678;SDS011;61978;52.742;16.962;2022-10-19T01:48:19;13.03;;;6.05;;
73678;SDS011;61978;52.742;16.962;2022-10-19T01:50:49;11.60;;;5.78;;
73678;SDS011;61978;52.742;16.962;2022-10-19T01:53:21;17.37;;;7.03;;
73678;SDS011;61978;52.742;16.962;2022-10-19T01:55:50;13.98;;;5.70;;
73678;SDS011;61978;52.742;16.962;2022-10-19T01:58:20;14.43;;;6.12;;
73678;SDS011;61978;52.742;16.962;2022-10-19T02:00:49;18.07;;;6.00;;
73678;SDS011;61978;52.742;16.962;2022-10-19T02:03:19;16.95;;;5.35;;
73678;SDS011;61978;52.742;16.962;2022-10-19T02:05:47;20.92;;;6.12;;
73678;SDS011;61978;52.742;16.962;2022-10-19T02:08:19;13.40;;;5.58;;
73678;SDS011;61978;52.742;16.962;2022-10-19T02:10:53;17.17;;;5.55;;
73678;SDS011;61978;52.742;16.962;2022-10-19T02:13:22;14.45;;;5.05;;
73678;SDS011;61978;52.742;16.962;2022-10-19T02:15:53;15.48;;;5.50;;
73678;SDS011;61978;52.742;16.962;2022-10-19T02:18:31;14.43;;;5.97;;
73678;SDS011;61978;52.742;16.962;2022-10-19T02:21:01;15.00;;;4.83;;
73678;SDS011;61978;52.742;16.962;2022-10-19T02:23:29;16.95;;;5.30;;
73678;SDS011;61978;52.742;16.962;2022-10-19T02:25:56;11.45;;;4.65;;
73678;SDS011;61978;52.742;16.962;2022-10-19T02:28:26;15.65;;;4.75;;
73678;SDS011;61978;52.742;16.962;2022-10-19T02:30:55;12.15;;;5.15;;
73678;SDS011;61978;52.742;16.962;2022-10-19T02:33:25;11.20;;;4.45;;
73678;SDS011;61978;52.742;16.962;2022-10-19T02:35:53;14.13;;;4.67;;
73678;SDS011;61978;52.742;16.962;2022-10-19T02:38:21;9.18;;;4.03;;
73678;SDS011;61978;52.742;16.962;2022-10-19T02:40:53;13.75;;;4.58;;
73678;SDS011;61978;52.742;16.962;2022-10-19T02:43:20;12.73;;;4.60;;
73678;SDS011;61978;52.742;16.962;2022-10-19T02:45:53;12.60;;;4.37;;
73678;SDS011;61978;52.742;16.962;2022-10-19T02:48:22;12.15;;;4.03;;
73678;SDS011;61978;52.742;16.962;2022-10-19T02:50:52;18.50;;;4.20;;
73678;SDS011;61978;52.742;16.962;2022-10-19T02:53:20;11.93;;;4.65;;
73678;SDS011;61978;52.742;16.962;2022-10-19T02:55:48;15.15;;;4.12;;
73678;SDS011;61978;52.742;16.962;2022-10-19T02:58:16;12.78;;;3.90;;
73678;SDS011;61978;52.742;16.962;2022-10-19T03:00:43;19.45;;;4.42;;
73678;SDS011;61978;52.742;16.962;2022-10-19T03:03:10;14.70;;;4.22;;
73678;SDS011;61978;52.742;16.962;2022-10-19T03:05:37;20.30;;;4.30;;
73678;SDS011;61978;52.742;16.962;2022-10-19T03:08:05;18.95;;;4.20;;
73678;SDS011;61978;52.742;16.962;2022-10-19T03:10:33;11.35;;;4.28;;
73678;SDS011;61978;52.742;16.962;2022-10-19T03:13:00;12.10;;;3.77;;
73678;SDS011;61978;52.742;16.962;2022-10-19T03:15:28;15.85;;;4.12;;
73678;SDS011;61978;52.742;16.962;2022-10-19T03:17:56;14.73;;;4.05;;
73678;SDS011;61978;52.742;16.962;2022-10-19T03:20:25;10.15;;;3.72;;
73678;SDS011;61978;52.742;16.962;2022-10-19T03:22:53;8.40;;;3.55;;
73678;SDS011;61978;52.742;16.962;2022-10-19T03:25:20;11.73;;;3.30;;
73678;SDS011;61978;52.742;16.962;2022-10-19T03:27:47;14.70;;;3.77;;
73678;SDS011;61978;52.742;16.962;2022-10-19T03:30:14;11.95;;;3.37;;
73678;SDS011;61978;52.742;16.962;2022-10-19T03:32:41;9.50;;;3.80;;
73678;SDS011;61978;52.742;16.962;2022-10-19T03:35:08;12.05;;;3.22;;
73678;SDS011;61978;52.742;16.962;2022-10-19T03:37:35;14.23;;;4.03;;
73678;SDS011;61978;52.742;16.962;2022-10-19T03:40:03;6.87;;;3.02;;
73678;SDS011;61978;52.742;16.962;2022-10-19T03:42:31;12.25;;;3.45;;
73678;SDS011;61978;52.742;16.962;2022-10-19T03:44:59;8.13;;;3.55;;
73678;SDS011;61978;52.742;16.962;2022-10-19T03:47:27;10.98;;;3.02;;
73678;SDS011;61978;52.742;16.962;2022-10-19T03:49:54;15.13;;;2.87;;
73678;SDS011;61978;52.742;16.962;2022-10-19T03:52:20;12.33;;;3.17;;
73678;SDS011;61978;52.742;16.962;2022-10-19T03:54:50;10.48;;;3.15;;
73678;SDS011;61978;52.742;16.962;2022-10-19T03:57:16;8.95;;;2.98;;
73678;SDS011;61978;52.742;16.962;2022-10-19T03:59:43;8.80;;;3.05;;
73678;SDS011;61978;52.742;16.962;2022-10-19T04:02:09;11.10;;;3.10;;
73678;SDS011;61978;52.742;16.962;2022-10-19T04:04:36;9.38;;;2.67;;
73678;SDS011;61978;52.742;16.962;2022-10-19T04:07:03;7.87;;;3.15;;
73678;SDS011;61978;52.742;16.962;2022-10-19T04:09:29;12.53;;;3.17;;
73678;SDS011;61978;52.742;16.962;2022-10-19T04:11:56;8.73;;;2.65;;
73678;SDS011;61978;52.742;16.962;2022-10-19T04:14:23;15.23;;;2.77;;
73678;SDS011;61978;52.742;16.962;2022-10-19T04:16:50;5.83;;;2.55;;
73678;SDS011;61978;52.742;16.962;2022-10-19T04:19:17;8.88;;;2.72;;
73678;SDS011;61978;52.742;16.962;2022-10-19T04:21:47;7.58;;;2.58;;
73678;SDS011;61978;52.742;16.962;2022-10-19T04:24:15;10.40;;;2.80;;
73678;SDS011;61978;52.742;16.962;2022-10-19T04:26:44;9.38;;;2.45;;
73678;SDS011;61978;52.742;16.962;2022-10-19T04:29:12;7.58;;;2.15;;
73678;SDS011;61978;52.742;16.962;2022-10-19T04:31:42;10.05;;;3.12;;
73678;SDS011;61978;52.742;16.962;2022-10-19T04:34:09;9.53;;;2.60;;
73678;SDS011;61978;52.742;16.962;2022-10-19T04:36:36;12.40;;;2.67;;
73678;SDS011;61978;52.742;16.962;2022-10-19T04:39:04;12.98;;;2.70;;
73678;SDS011;61978;52.742;16.962;2022-10-19T04:41:32;8.68;;;2.58;;
73678;SDS011;61978;52.742;16.962;2022-10-19T04:44:01;10.93;;;2.55;;
73678;SDS011;61978;52.742;16.962;2022-10-19T04:46:29;9.98;;;2.58;;
73678;SDS011;61978;52.742;16.962;2022-10-19T04:48:56;8.18;;;2.70;;
73678;SDS011;61978;52.742;16.962;2022-10-19T04:51:26;9.45;;;2.62;;
73678;SDS011;61978;52.742;16.962;2022-10-19T04:53:55;7.10;;;2.67;;
73678;SDS011;61978;52.742;16.962;2022-10-19T04:56:23;67.30;;;43.70;;
73678;SDS011;61978;52.742;16.962;2022-10-19T04:58:53;76.60;;;40.92;;
73678;SDS011;61978;52.742;16.962;2022-10-19T05:01:21;37.85;;;24.25;;
73678;SDS011;61978;52.742;16.962;2022-10-19T05:03:57;8.63;;;4.42;;
73678;SDS011;61978;52.742;16.962;2022-10-19T05:06:26;7.95;;;3.10;;
73678;SDS011;61978;52.742;16.962;2022-10-19T05:08:53;16.32;;;5.58;;
73678;SDS011;61978;52.742;16.962;2022-10-19T05:11:20;8.38;;;2.15;;
73678;SDS011;61978;52.742;16.962;2022-10-19T05:13:48;9.85;;;2.35;;
73678;SDS011;61978;52.742;16.962;2022-10-19T05:16:17;14.85;;;7.65;;
73678;SDS011;61978;52.742;16.962;2022-10-19T05:18:51;10.58;;;4.37;;
73678;SDS011;61978;52.742;16.962;2022-10-19T05:21:16;10.78;;;3.92;;
73678;SDS011;61978;52.742;16.962;2022-10-19T05:23:45;9.30;;;2.52;;
73678;SDS011;61978;52.742;16.962;2022-10-19T05:26:13;8.68;;;3.17;;
73678;SDS011;61978;52.742;16.962;2022-10-19T05:28:47;22.80;;;13.38;;
73678;SDS011;61978;52.742;16.962;2022-10-19T05:31:16;10.03;;;6.65;;
73678;SDS011;61978;52.742;16.962;2022-10-19T05:33:45;22.73;;;11.03;;
73678;SDS011;61978;52.742;16.962;2022-10-19T05:36:17;16.23;;;8.13;;
73678;SDS011;61978;52.742;16.962;2022-10-19T05:38:43;14.73;;;8.10;;
73678;SDS011;61978;52.742;16.962;2022-10-19T05:41:11;9.60;;;7.20;;
73678;SDS011;61978;52.742;16.962;2022-10-19T05:43:39;9.70;;;2.45;;
73678;SDS011;61978;52.742;16.962;2022-10-19T05:46:13;7.95;;;2.85;;
73678;SDS011;61978;52.742;16.962;2022-10-19T05:48:37;7.80;;;2.40;;
73678;SDS011;61978;52.742;16.962;2022-10-19T05:51:07;8.60;;;2.60;;
73678;SDS011;61978;52.742;16.962;2022-10-19T05:53:34;9.20;;;2.00;;
73678;SDS011;61978;52.742;16.962;2022-10-19T05:56:07;7.15;;;2.47;;
73678;SDS011;61978;52.742;16.962;2022-10-19T05:58:31;5.58;;;1.90;;
73678;SDS011;61978;52.742;16.962;2022-10-19T06:01:00;6.20;;;2.05;;
73678;SDS011;61978;52.742;16.962;2022-10-19T06:03:27;5.65;;;2.20;;
73678;SDS011;61978;52.742;16.962;2022-10-19T06:05:54;6.05;;;1.77;;
73678;SDS011;61978;52.742;16.962;2022-10-19T06:08:22;3.95;;;1.70;;
73678;SDS011;61978;52.742;16.962;2022-10-19T06:10:49;4.62;;;1.60;;
73678;SDS011;61978;52.742;16.962;2022-10-19T06:13:17;6.65;;;1.92;;
73678;SDS011;61978;52.742;16.962;2022-10-19T06:15:48;7.80;;;1.98;;
73678;SDS011;61978;52.742;16.962;2022-10-19T06:18:17;4.57;;;1.13;;
73678;SDS011;61978;52.742;16.962;2022-10-19T06:20:44;8.28;;;1.65;;
73678;SDS011;61978;52.742;16.962;2022-10-19T06:23:10;4.62;;;1.52;;
73678;SDS011;61978;52.742;16.962;2022-10-19T06:25:37;7.28;;;1.90;;
73678;SDS011;61978;52.742;16.962;2022-10-19T06:28:06;5.60;;;1.65;;
73678;SDS011;61978;52.742;16.962;2022-10-19T06:30:33;5.70;;;1.62;;
73678;SDS011;61978;52.742;16.962;2022-10-19T06:33:02;7.00;;;1.62;;
73678;SDS011;61978;52.742;16.962;2022-10-19T06:35:28;7.40;;;1.77;;
73678;SDS011;61978;52.742;16.962;2022-10-19T06:37:55;6.80;;;1.98;;
73678;SDS011;61978;52.742;16.962;2022-10-19T06:40:23;6.97;;;2.25;;
73678;SDS011;61978;52.742;16.962;2022-10-19T06:42:50;8.75;;;1.77;;
73678;SDS011;61978;52.742;16.962;2022-10-19T06:45:17;6.10;;;2.25;;
73678;SDS011;61978;52.742;16.962;2022-10-19T06:47:44;6.53;;;1.60;;
73678;SDS011;61978;52.742;16.962;2022-10-19T06:50:10;7.47;;;1.55;;
73678;SDS011;61978;52.742;16.962;2022-10-19T06:52:37;7.45;;;2.27;;
73678;SDS011;61978;52.742;16.962;2022-10-19T06:55:06;4.83;;;1.95;;
73678;SDS011;61978;52.742;16.962;2022-10-19T06:57:33;5.78;;;2.15;;
73678;SDS011;61978;52.742;16.962;2022-10-19T07:00:00;8.85;;;1.72;;
73678;SDS011;61978;52.742;16.962;2022-10-19T07:02:26;6.72;;;2.50;;
73678;SDS011;61978;52.742;16.962;2022-10-19T07:04:54;5.22;;;1.98;;
73678;SDS011;61978;52.742;16.962;2022-10-19T07:07:21;5.55;;;1.87;;
73678;SDS011;61978;52.742;16.962;2022-10-19T07:09:48;9.33;;;2.55;;
73678;SDS011;61978;52.742;16.962;2022-10-19T07:12:16;4.75;;;2.10;;
73678;SDS011;61978;52.742;16.962;2022-10-19T07:14:43;10.68;;;3.67;;
73678;SDS011;61978;52.742;16.962;2022-10-19T07:17:12;11.90;;;3.95;;
73678;SDS011;61978;52.742;16.962;2022-10-19T07:19:39;37.75;;;34.08;;
73678;SDS011;61978;52.742;16.962;2022-10-19T07:22:06;8.93;;;5.17;;
73678;SDS011;61978;52.742;16.962;2022-10-19T07:24:33;12.05;;;3.90;;
73678;SDS011;61978;52.742;16.962;2022-10-19T07:27:01;5.92;;;2.60;;
73678;SDS011;61978;52.742;16.962;2022-10-19T07:29:28;8.30;;;4.28;;
73678;SDS011;61978;52.742;16.962;2022-10-19T07:31:54;7.12;;;2.80;;
73678;SDS011;61978;52.742;16.962;2022-10-19T07:34:21;8.68;;;2.30;;
73678;SDS011;61978;52.742;16.962;2022-10-19T07:36:48;10.88;;;4.90;;
73678;SDS011;61978;52.742;16.962;2022-10-19T07:39:15;7.67;;;3.25;;
73678;SDS011;61978;52.742;16.962;2022-10-19T07:41:41;6.40;;;2.47;;
73678;SDS011;61978;52.742;16.962;2022-10-19T07:44:09;6.97;;;2.72;;
73678;SDS011;61978;52.742;16.962;2022-10-19T07:46:39;5.85;;;2.70;;
73678;SDS011;61978;52.742;16.962;2022-10-19T07:49:09;6.45;;;2.02;;
73678;SDS011;61978;52.742;16.962;2022-10-19T07:51:39;6.78;;;2.33;;
73678;SDS011;61978;52.742;16.962;2022-10-19T07:54:08;3.95;;;2.00;;
73678;SDS011;61978;52.742;16.962;2022-10-19T07:56:35;7.17;;;2.72;;
73678;SDS011;61978;52.742;16.962;2022-10-19T07:59:03;4.72;;;2.40;;
73678;SDS011;61978;52.742;16.962;2022-10-19T08:01:32;8.35;;;2.85;;
73678;SDS011;61978;52.742;16.962;2022-10-19T08:04:01;5.85;;;3.15;;
73678;SDS011;61978;52.742;16.962;2022-10-19T08:06:28;9.58;;;3.17;;
73678;SDS011;61978;52.742;16.962;2022-10-19T08:08:56;8.70;;;3.08;;
73678;SDS011;61978;52.742;16.962;2022-10-19T08:11:25;7.45;;;2.95;;
73678;SDS011;61978;52.742;16.962;2022-10-19T08:13:55;5.10;;;3.50;;
73678;SDS011;61978;52.742;16.962;2022-10-19T08:19:06;5.62;;;2.52;;
73678;SDS011;61978;52.742;16.962;2022-10-19T08:21:35;4.33;;;2.42;;
73678;SDS011;61978;52.742;16.962;2022-10-19T08:24:03;3.42;;;2.52;;
73678;SDS011;61978;52.742;16.962;2022-10-19T08:26:31;3.77;;;2.30;;
73678;SDS011;61978;52.742;16.962;2022-10-19T08:29:12;4.37;;;2.40;;
73678;SDS011;61978;52.742;16.962;2022-10-19T08:31:41;4.60;;;2.65;;
73678;SDS011;61978;52.742;16.962;2022-10-19T08:34:09;8.20;;;2.80;;
73678;SDS011;61978;52.742;16.962;2022-10-19T08:36:38;3.35;;;2.42;;
73678;SDS011;61978;52.742;16.962;2022-10-19T08:39:06;6.40;;;3.02;;
73678;SDS011;61978;52.742;16.962;2022-10-19T08:42:01;2.30;;;2.05;;
73678;SDS011;61978;52.742;16.962;2022-10-19T08:44:38;3.42;;;2.15;;
73678;SDS011;61978;52.742;16.962;2022-10-19T08:50:18;4.83;;;2.08;;
73678;SDS011;61978;52.742;16.962;2022-10-19T08:52:53;16.82;;;13.15;;
73678;SDS011;61978;52.742;16.962;2022-10-19T08:55:24;18.23;;;12.80;;
73678;SDS011;61978;52.742;16.962;2022-10-19T09:00:50;6.67;;;2.83;;
73678;SDS011;61978;52.742;16.962;2022-10-19T09:03:33;2.60;;;1.57;;
73678;SDS011;61978;52.742;16.962;2022-10-19T09:08:46;5.87;;;2.30;;
73678;SDS011;61978;52.742;16.962;2022-10-19T09:11:18;2.25;;;1.80;;
73678;SDS011;61978;52.742;16.962;2022-10-19T09:13:47;3.20;;;2.33;;
73678;SDS011;61978;52.742;16.962;2022-10-19T09:16:17;3.77;;;2.00;;
73678;SDS011;61978;52.742;16.962;2022-10-19T09:18:46;4.45;;;2.87;;
73678;SDS011;61978;52.742;16.962;2022-10-19T09:21:21;6.97;;;3.55;;
73678;SDS011;61978;52.742;16.962;2022-10-19T09:23:55;9.00;;;4.05;;
73678;SDS011;61978;52.742;16.962;2022-10-19T09:26:36;7.87;;;3.65;;
73678;SDS011;61978;52.742;16.962;2022-10-19T09:29:12;24.00;;;21.62;;
73678;SDS011;61978;52.742;16.962;2022-10-19T09:31:43;4.15;;;2.42;;
73678;SDS011;61978;52.742;16.962;2022-10-19T09:34:12;2.17;;;1.42;;
73678;SDS011;61978;52.742;16.962;2022-10-19T09:36:41;1.90;;;1.10;;
73678;SDS011;61978;52.742;16.962;2022-10-19T09:39:11;1.45;;;0.70;;
73678;SDS011;61978;52.742;16.962;2022-10-19T09:41:50;2.77;;;0.80;;
73678;SDS011;61978;52.742;16.962;2022-10-19T09:44:14;2.45;;;0.80;;
73678;SDS011;61978;52.742;16.962;2022-10-19T09:46:49;3.05;;;0.82;;
73678;SDS011;61978;52.742;16.962;2022-10-19T09:49:41;2.47;;;1.10;;
73678;SDS011;61978;52.742;16.962;2022-10-19T09:52:27;3.33;;;1.12;;
73678;SDS011;61978;52.742;16.962;2022-10-19T09:57:33;2.98;;;1.17;;
73678;SDS011;61978;52.742;16.962;2022-10-19T10:00:04;2.02;;;1.10;;
73678;SDS011;61978;52.742;16.962;2022-10-19T10:02:32;1.70;;;0.98;;
73678;SDS011;61978;52.742;16.962;2022-10-19T10:05:03;0.90;;;0.65;;
73678;SDS011;61978;52.742;16.962;2022-10-19T10:07:35;3.83;;;1.02;;
73678;SDS011;61978;52.742;16.962;2022-10-19T10:10:08;1.77;;;1.02;;
73678;SDS011;61978;52.742;16.962;2022-10-19T10:12:38;1.25;;;0.82;;
73678;SDS011;61978;52.742;16.962;2022-10-19T10:15:06;1.05;;;0.75;;
73678;SDS011;61978;52.742;16.962;2022-10-19T10:17:33;3.55;;;1.22;;
73678;SDS011;61978;52.742;16.962;2022-10-19T10:22:33;1.65;;;0.88;;
73678;SDS011;61978;52.742;16.962;2022-10-19T10:25:10;0.85;;;0.78;;
73678;SDS011;61978;52.742;16.962;2022-10-19T10:27:38;3.75;;;1.02;;
73678;SDS011;61978;52.742;16.962;2022-10-19T10:30:15;3.42;;;1.72;;
73678;SDS011;61978;52.742;16.962;2022-10-19T10:32:46;0.82;;;0.37;;
73678;SDS011;61978;52.742;16.962;2022-10-19T10:35:33;4.25;;;0.30;;
73678;SDS011;61978;52.742;16.962;2022-10-19T10:38:03;4.22;;;0.42;;
73678;SDS011;61978;52.742;16.962;2022-10-19T10:40:32;1.50;;;0.70;;
73678;SDS011;61978;52.742;16.962;2022-10-19T10:43:05;0.50;;;0.40;;
73678;SDS011;61978;52.742;16.962;2022-10-19T10:45:37;2.25;;;0.55;;
73678;SDS011;61978;52.742;16.962;2022-10-19T10:48:13;0.93;;;0.30;;
73678;SDS011;61978;52.742;16.962;2022-10-19T10:50:49;3.60;;;0.75;;
73678;SDS011;61978;52.742;16.962;2022-10-19T10:56:16;4.15;;;0.50;;
73678;SDS011;61978;52.742;16.962;2022-10-19T11:01:47;1.02;;;0.45;;
73678;SDS011;61978;52.742;16.962;2022-10-19T11:04:14;1.60;;;0.30;;
73678;SDS011;61978;52.742;16.962;2022-10-19T11:06:50;0.60;;;0.40;;
73678;SDS011;61978;52.742;16.962;2022-10-19T11:11:46;1.02;;;0.25;;
73678;SDS011;61978;52.742;16.962;2022-10-19T11:14:33;6.15;;;0.50;;
73678;SDS011;61978;52.742;16.962;2022-10-19T11:16:59;1.15;;;0.30;;
73678;SDS011;61978;52.742;16.962;2022-10-19T11:19:33;1.60;;;0.20;;
73678;SDS011;61978;52.742;16.962;2022-10-19T11:22:13;5.47;;;1.90;;
73678;SDS011;61978;52.742;16.962;2022-10-19T11:28:08;1.10;;;0.25;;
73678;SDS011;61978;52.742;16.962;2022-10-19T11:33:52;3.47;;;0.30;;
73678;SDS011;61978;52.742;16.962;2022-10-19T11:41:59;0.70;;;0.33;;
73678;SDS011;61978;52.742;16.962;2022-10-19T11:44:31;1.07;;;0.20;;
73678;SDS011;61978;52.742;16.962;2022-10-19T11:47:13;3.20;;;0.40;;
73678;SDS011;61978;52.742;16.962;2022-10-19T11:58:41;0.75;;;0.30;;
73678;SDS011;61978;52.742;16.962;2022-10-19T12:10:02;2.33;;;0.25;;
73678;SDS011;61978;52.742;16.962;2022-10-19T12:12:22;2.25;;;0.30;;
73678;SDS011;61978;52.742;16.962;2022-10-19T12:14:59;2.22;;;0.33;;
73678;SDS011;61978;52.742;16.962;2022-10-19T12:17:41;1.77;;;0.20;;
73678;SDS011;61978;52.742;16.962;2022-10-19T12:20:31;0.62;;;0.20;;
73678;SDS011;61978;52.742;16.962;2022-10-19T12:23:00;0.78;;;0.20;;
73678;SDS011;61978;52.742;16.962;2022-10-19T12:25:30;1.05;;;0.30;;
73678;SDS011;61978;52.742;16.962;2022-10-19T12:27:59;0.30;;;0.10;;
73678;SDS011;61978;52.742;16.962;2022-10-19T12:30:29;1.20;;;0.23;;
73678;SDS011;61978;52.742;16.962;2022-10-19T12:35:38;3.12;;;0.40;;
73678;SDS011;61978;52.742;16.962;2022-10-19T12:38:09;1.62;;;0.20;;
73678;SDS011;61978;52.742;16.962;2022-10-19T12:40:36;1.27;;;0.30;;
73678;SDS011;61978;52.742;16.962;2022-10-19T12:43:09;3.25;;;0.30;;
73678;SDS011;61978;52.742;16.962;2022-10-19T12:48:41;1.15;;;0.50;;
73678;SDS011;61978;52.742;16.962;2022-10-19T12:51:09;0.82;;;0.20;;
73678;SDS011;61978;52.742;16.962;2022-10-19T12:53:41;0.37;;;0.20;;
73678;SDS011;61978;52.742;16.962;2022-10-19T12:56:19;0.45;;;0.30;;
73678;SDS011;61978;52.742;16.962;2022-10-19T13:04:14;1.70;;;0.30;;
73678;SDS011;61978;52.742;16.962;2022-10-19T13:09:29;0.53;;;0.35;;
73678;SDS011;61978;52.742;16.962;2022-10-19T13:12:46;0.72;;;0.30;;
73678;SDS011;61978;52.742;16.962;2022-10-19T13:14:54;1.00;;;0.50;;
73678;SDS011;61978;52.742;16.962;2022-10-19T13:38:39;1.60;;;0.20;;
73678;SDS011;61978;52.742;16.962;2022-10-19T13:46:48;2.83;;;0.20;;
73678;SDS011;61978;52.742;16.962;2022-10-19T14:08:37;1.87;;;0.40;;
73678;SDS011;61978;52.742;16.962;2022-10-19T14:11:13;1.02;;;0.30;;
73678;SDS011;61978;52.742;16.962;2022-10-19T14:13:42;0.57;;;0.30;;
73678;SDS011;61978;52.742;16.962;2022-10-19T14:16:18;1.57;;;0.30;;
73678;SDS011;61978;52.742;16.962;2022-10-19T14:18:53;0.95;;;0.40;;
73678;SDS011;61978;52.742;16.962;2022-10-19T14:21:33;0.60;;;0.40;;
73678;SDS011;61978;52.742;16.962;2022-10-19T14:24:01;0.75;;;0.30;;
73678;SDS011;61978;52.742;16.962;2022-10-19T14:26:29;0.70;;;0.30;;
73678;SDS011;61978;52.742;16.962;2022-10-19T14:28:57;1.85;;;0.50;;
73678;SDS011;61978;52.742;16.962;2022-10-19T14:31:30;0.78;;;0.42;;
73678;SDS011;61978;52.742;16.962;2022-10-19T14:33:59;0.30;;;0.20;;
73678;SDS011;61978;52.742;16.962;2022-10-19T14:36:33;0.62;;;0.33;;
73678;SDS011;61978;52.742;16.962;2022-10-19T14:39:01;0.55;;;0.23;;
73678;SDS011;61978;52.742;16.962;2022-10-19T14:41:34;0.47;;;0.30;;
73678;SDS011;61978;52.742;16.962;2022-10-19T14:44:01;0.20;;;0.20;;
73678;SDS011;61978;52.742;16.962;2022-10-19T14:46:31;2.92;;;0.40;;
73678;SDS011;61978;52.742;16.962;2022-10-19T14:49:00;0.35;;;0.20;;
73678;SDS011;61978;52.742;16.962;2022-10-19T14:54:03;0.62;;;0.30;;
73678;SDS011;61978;52.742;16.962;2022-10-19T15:02:16;5.62;;;0.60;;
73678;SDS011;61978;52.742;16.962;2022-10-19T15:04:54;1.27;;;0.30;;
73678;SDS011;61978;52.742;16.962;2022-10-19T15:07:29;1.72;;;0.65;;
73678;SDS011;61978;52.742;16.962;2022-10-19T15:10:05;3.50;;;0.40;;
73678;SDS011;61978;52.742;16.962;2022-10-19T15:12:34;1.27;;;0.35;;
73678;SDS011;61978;52.742;16.962;2022-10-19T15:15:17;0.75;;;0.40;;
73678;SDS011;61978;52.742;16.962;2022-10-19T15:17:49;4.20;;;0.60;;
73678;SDS011;61978;52.742;16.962;2022-10-19T15:20:28;1.00;;;0.55;;
73678;SDS011;61978;52.742;16.962;2022-10-19T15:22:59;0.47;;;0.42;;
73678;SDS011;61978;52.742;16.962;2022-10-19T15:25:31;1.27;;;0.45;;
73678;SDS011;61978;52.742;16.962;2022-10-19T15:31:05;1.37;;;0.70;;
73678;SDS011;61978;52.742;16.962;2022-10-19T15:33:38;0.55;;;0.35;;
73678;SDS011;61978;52.742;16.962;2022-10-19T15:38:37;1.57;;;0.47;;
73678;SDS011;61978;52.742;16.962;2022-10-19T15:41:04;1.25;;;0.53;;
73678;SDS011;61978;52.742;16.962;2022-10-19T15:48:54;4.17;;;0.57;;
73678;SDS011;61978;52.742;16.962;2022-10-19T15:53:57;3.00;;;0.45;;
73678;SDS011;61978;52.742;16.962;2022-10-19T15:56:26;2.85;;;0.70;;
73678;SDS011;61978;52.742;16.962;2022-10-19T15:58:55;2.45;;;0.70;;
73678;SDS011;61978;52.742;16.962;2022-10-19T16:01:26;2.95;;;0.90;;
73678;SDS011;61978;52.742;16.962;2022-10-19T16:03:57;2.75;;;1.10;;
73678;SDS011;61978;52.742;16.962;2022-10-19T16:06:30;3.20;;;0.88;;
73678;SDS011;61978;52.742;16.962;2022-10-19T16:08:56;9.70;;;1.87;;
73678;SDS011;61978;52.742;16.962;2022-10-19T16:11:25;12.70;;;5.05;;
73678;SDS011;61978;52.742;16.962;2022-10-19T16:13:54;5.00;;;1.47;;
73678;SDS011;61978;52.742;16.962;2022-10-19T16:16:22;3.50;;;0.75;;
73678;SDS011;61978;52.742;16.962;2022-10-19T16:18:51;4.10;;;0.98;;
73678;SDS011;61978;52.742;16.962;2022-10-19T16:21:19;1.70;;;1.05;;
73678;SDS011;61978;52.742;16.962;2022-10-19T16:23:48;3.25;;;1.52;;
73678;SDS011;61978;52.742;16.962;2022-10-19T16:26:15;5.40;;;3.00;;
73678;SDS011;61978;52.742;16.962;2022-10-19T16:28:44;9.88;;;3.30;;
73678;SDS011;61978;52.742;16.962;2022-10-19T16:31:11;9.58;;;3.60;;
73678;SDS011;61978;52.742;16.962;2022-10-19T16:33:40;7.67;;;2.40;;
73678;SDS011;61978;52.742;16.962;2022-10-19T16:36:06;7.25;;;2.33;;
73678;SDS011;61978;52.742;16.962;2022-10-19T16:38:34;2.95;;;2.05;;
73678;SDS011;61978;52.742;16.962;2022-10-19T16:41:05;3.87;;;2.10;;
73678;SDS011;61978;52.742;16.962;2022-10-19T16:43:34;3.92;;;2.22;;
73678;SDS011;61978;52.742;16.962;2022-10-19T16:46:03;7.87;;;6.92;;
73678;SDS011;61978;52.742;16.962;2022-10-19T16:48:31;9.63;;;8.13;;
73678;SDS011;61978;52.742;16.962;2022-10-19T16:53:38;4.30;;;2.92;;
73678;SDS011;61978;52.742;16.962;2022-10-19T16:56:06;5.12;;;2.02;;
73678;SDS011;61978;52.742;16.962;2022-10-19T16:58:37;4.58;;;3.22;;
73678;SDS011;61978;52.742;16.962;2022-10-19T17:01:06;6.20;;;2.37;;
73678;SDS011;61978;52.742;16.962;2022-10-19T17:03:35;5.53;;;3.08;;
73678;SDS011;61978;52.742;16.962;2022-10-19T17:06:02;3.22;;;1.90;;
73678;SDS011;61978;52.742;16.962;2022-10-19T17:08:31;3.55;;;1.77;;
73678;SDS011;61978;52.742;16.962;2022-10-19T17:13:47;4.95;;;2.15;;
73678;SDS011;61978;52.742;16.962;2022-10-19T17:16:17;3.35;;;2.35;;
73678;SDS011;61978;52.742;16.962;2022-10-19T17:18:46;4.17;;;2.95;;
73678;SDS011;61978;52.742;16.962;2022-10-19T17:21:15;5.03;;;2.50;;
73678;SDS011;61978;52.742;16.962;2022-10-19T17:23:46;8.70;;;3.17;;
73678;SDS011;61978;52.742;16.962;2022-10-19T17:26:15;5.70;;;3.35;;
73678;SDS011;61978;52.742;16.962;2022-10-19T17:28:42;7.25;;;2.90;;